Time;durP1;ratioP1;P1;durP2;ratioP2;P2;SDS_P1;SDS_P2;PMS_P1;PMS_P2;Temp;Humidity;BMP_temperature;BMP_pressure;BME280_temperature;BME280_humidity;BME280_pressure;Samples;Min_cycle;Max_cycle;Signal;HPM_P1;HPM_P2
2021/07/03 00:01:36;;;;;;;1.75;1.60;;;21.00;71.30;;;;;;5115157;28;20058;-53
2021/07/03 00:04:02;;;;;;;1.65;1.55;;;21.00;71.40;;;;;;5115060;28;20559;-40
2021/07/03 00:06:27;;;;;;;1.60;1.50;;;21.00;71.30;;;;;;5115226;28;20046;-46
2021/07/03 00:08:53;;;;;;;2.05;1.77;;;21.00;71.30;;;;;;5113052;28;20044;-49
2021/07/03 00:11:19;;;;;;;2.15;1.67;;;20.90;71.30;;;;;;5114979;28;20132;-41
2021/07/03 00:13:44;;;;;;;1.58;1.48;;;21.00;71.40;;;;;;5115034;28;20054;-52
2021/07/03 00:16:10;;;;;;;1.77;1.60;;;21.00;71.40;;;;;;5113336;28;20616;-53
2021/07/03 00:18:36;;;;;;;2.30;1.65;;;21.00;71.40;;;;;;5113795;28;20054;-54
2021/07/03 00:21:03;;;;;;;2.30;1.85;;;20.90;71.40;;;;;;5115431;28;20070;-47
2021/07/03 00:23:30;;;;;;;1.95;1.75;;;21.00;71.40;;;;;;5114100;28;20112;-53
2021/07/03 00:25:56;;;;;;;2.20;1.98;;;21.00;71.40;;;;;;5114877;28;20487;-47
2021/07/03 00:28:22;;;;;;;2.47;2.10;;;21.00;71.40;;;;;;5114895;28;20071;-41
2021/07/03 00:30:48;;;;;;;2.97;2.13;;;20.90;71.40;;;;;;5113981;28;20078;-47
2021/07/03 00:33:14;;;;;;;2.03;1.70;;;21.00;71.40;;;;;;5114593;28;20139;-48
2021/07/03 00:35:39;;;;;;;2.05;1.60;;;20.90;71.40;;;;;;5112844;28;20499;-45
2021/07/03 00:38:05;;;;;;;2.28;2.03;;;21.00;71.50;;;;;;5114667;28;20165;-48
2021/07/03 00:40:31;;;;;;;1.92;1.70;;;20.90;71.40;;;;;;5114007;28;20052;-48
2021/07/03 00:42:57;;;;;;;1.90;1.80;;;21.00;71.50;;;;;;5114484;28;20047;-49
2021/07/03 00:45:23;;;;;;;1.83;1.70;;;21.00;71.50;;;;;;5112667;28;20071;-48
2021/07/03 00:47:50;;;;;;;2.05;1.58;;;20.90;71.50;;;;;;5114282;28;20051;-41
2021/07/03 00:50:16;;;;;;;2.55;1.50;;;20.90;71.50;;;;;;5114459;28;20043;-46
2021/07/03 00:52:43;;;;;;;1.75;1.65;;;20.90;71.40;;;;;;5114392;28;20044;-50
2021/07/03 00:55:10;;;;;;;2.08;1.85;;;20.90;71.50;;;;;;5111101;28;20410;-47
2021/07/03 00:57:41;;;;;;;1.50;1.30;;;20.90;71.50;;;;;;5093506;28;20044;-41
2021/07/03 01:00:07;;;;;;;2.47;2.10;;;20.90;71.50;;;;;;5093710;28;20051;-52
2021/07/03 01:02:33;;;;;;;2.08;1.52;;;20.90;71.50;;;;;;5093531;28;20052;-42
2021/07/03 01:04:59;;;;;;;1.42;1.30;;;20.90;71.50;;;;;;5093565;28;20461;-40
2021/07/03 01:07:24;;;;;;;1.98;1.88;;;20.90;71.50;;;;;;5094586;28;20048;-47
2021/07/03 01:09:50;;;;;;;1.60;1.50;;;20.90;71.50;;;;;;5093414;28;20044;-46
2021/07/03 01:12:16;;;;;;;2.03;1.83;;;20.90;71.60;;;;;;5092916;28;20052;-42
2021/07/03 01:14:46;;;;;;;2.45;1.95;;;20.90;71.50;;;;;;5093393;28;20071;-40
2021/07/03 01:17:13;;;;;;;2.55;1.70;;;21.00;71.60;;;;;;5093916;28;20110;-44
2021/07/03 01:19:39;;;;;;;2.47;1.85;;;20.90;71.60;;;;;;5107663;28;20051;-41
2021/07/03 01:22:09;;;;;;;2.20;1.60;;;20.90;71.60;;;;;;5113109;28;20075;-54
2021/07/03 01:24:35;;;;;;;2.17;1.83;;;20.80;71.60;;;;;;5111674;28;20097;-53
2021/07/03 01:27:01;;;;;;;1.80;1.65;;;20.80;71.60;;;;;;5113126;28;20043;-42
2021/07/03 01:29:29;;;;;;;2.00;1.58;;;20.80;71.60;;;;;;5094069;28;20063;-42
2021/07/03 01:31:57;;;;;;;2.03;1.63;;;20.90;71.60;;;;;;5092851;28;20048;-42
2021/07/03 01:34:25;;;;;;;1.98;1.80;;;20.80;71.60;;;;;;5092956;28;20442;-45
2021/07/03 01:36:51;;;;;;;1.80;1.40;;;20.80;71.60;;;;;;5094012;28;20107;-52
2021/07/03 01:39:17;;;;;;;1.42;1.30;;;20.80;71.60;;;;;;5092994;28;20142;-47
2021/07/03 01:41:44;;;;;;;1.88;1.55;;;20.80;71.60;;;;;;5092820;28;20115;-53
2021/07/03 01:44:11;;;;;;;1.60;1.50;;;20.80;71.60;;;;;;5092405;28;20143;-42
2021/07/03 01:46:39;;;;;;;1.58;1.48;;;20.80;71.60;;;;;;5093609;28;20062;-53
2021/07/03 01:49:07;;;;;;;1.60;1.50;;;20.80;72.20;;;;;;5092629;28;20203;-53
2021/07/03 01:51:33;;;;;;;1.30;1.20;;;20.90;71.70;;;;;;5092413;28;20044;-51
2021/07/03 01:54:00;;;;;;;1.70;1.50;;;20.90;71.70;;;;;;5092697;28;20079;-53
2021/07/03 01:56:25;;;;;;;2.47;1.50;;;20.80;71.60;;;;;;5093411;28;20044;-53
2021/07/03 01:58:51;;;;;;;1.75;1.52;;;20.80;71.60;;;;;;5092205;28;20048;-53
2021/07/03 02:01:17;;;;;;;1.50;1.40;;;20.80;71.70;;;;;;5092247;28;20108;-54
2021/07/03 02:03:43;;;;;;;1.50;1.30;;;20.80;71.70;;;;;;5104261;28;20448;-48
2021/07/03 02:06:09;;;;;;;1.58;1.42;;;20.80;71.60;;;;;;5112505;28;20044;-44
2021/07/03 02:08:35;;;;;;;1.80;1.70;;;20.80;71.70;;;;;;5111094;28;20044;-42
2021/07/03 02:11:02;;;;;;;1.73;1.60;;;20.80;71.60;;;;;;5112680;28;20400;-51
2021/07/03 02:13:29;;;;;;;1.55;1.45;;;20.80;71.60;;;;;;5112596;28;20151;-54
2021/07/03 02:15:55;;;;;;;1.90;1.60;;;20.80;71.70;;;;;;5112380;28;20043;-55
2021/07/03 02:18:21;;;;;;;1.40;1.30;;;20.80;71.70;;;;;;5110571;28;20526;-48
2021/07/03 02:20:48;;;;;;;1.70;1.60;;;20.80;71.70;;;;;;5106851;28;20516;-41
2021/07/03 02:23:14;;;;;;;1.73;1.45;;;20.80;71.70;;;;;;5092524;28;20384;-54
2021/07/03 02:25:40;;;;;;;1.63;1.30;;;20.80;71.70;;;;;;5092344;28;20480;-52
2021/07/03 02:28:06;;;;;;;1.60;1.50;;;20.80;71.70;;;;;;5093325;28;20134;-44
2021/07/03 02:30:32;;;;;;;2.55;1.65;;;20.80;71.70;;;;;;5091877;28;20511;-54
2021/07/03 02:32:59;;;;;;;1.58;1.48;;;20.80;71.70;;;;;;5091959;28;20056;-53
2021/07/03 02:35:25;;;;;;;1.42;1.33;;;20.80;71.70;;;;;;5092484;28;20044;-43
2021/07/03 02:37:51;;;;;;;1.50;1.40;;;20.80;71.80;;;;;;5092405;28;20043;-47
2021/07/03 02:40:18;;;;;;;1.70;1.60;;;20.80;71.70;;;;;;5094141;28;20051;-49
2021/07/03 02:42:45;;;;;;;1.60;1.50;;;20.80;71.80;;;;;;5092596;28;20048;-45
2021/07/03 02:45:13;;;;;;;2.05;1.48;;;20.80;71.70;;;;;;5092256;28;20079;-43
2021/07/03 02:47:39;;;;;;;1.70;1.40;;;20.80;71.70;;;;;;5091761;28;20051;-50
2021/07/03 02:50:08;;;;;;;1.75;1.65;;;20.70;71.70;;;;;;5093279;28;20483;-49
2021/07/03 02:52:34;;;;;;;1.58;1.48;;;20.70;71.70;;;;;;5092074;28;20048;-47
2021/07/03 02:55:00;;;;;;;3.55;1.60;;;20.80;71.80;;;;;;5095995;28;20409;-48
2021/07/03 02:57:25;;;;;;;1.75;1.63;;;20.80;71.80;;;;;;5098768;28;20048;-49
2021/07/03 02:59:52;;;;;;;1.45;1.35;;;20.70;71.70;;;;;;5099618;28;20146;-47
2021/07/03 03:02:18;;;;;;;1.65;1.50;;;20.70;71.70;;;;;;5097817;28;20040;-41
2021/07/03 03:04:44;;;;;;;1.65;1.50;;;20.80;71.80;;;;;;5098206;28;20055;-47
2021/07/03 03:07:10;;;;;;;1.45;1.35;;;20.80;71.80;;;;;;5097765;28;20054;-44
2021/07/03 03:09:36;;;;;;;1.50;1.40;;;20.70;71.70;;;;;;5097649;28;20067;-52
2021/07/03 03:12:02;;;;;;;1.77;1.52;;;20.70;71.80;;;;;;5098801;28;20402;-46
2021/07/03 03:14:28;;;;;;;1.60;1.50;;;20.80;71.80;;;;;;5098352;28;20066;-48
2021/07/03 03:16:54;;;;;;;2.08;1.52;;;20.70;71.70;;;;;;5097887;28;20581;-49
2021/07/03 03:19:20;;;;;;;1.40;1.30;;;20.80;71.80;;;;;;5097832;28;20060;-45
2021/07/03 03:21:45;;;;;;;1.73;1.20;;;20.70;71.80;;;;;;5099302;28;20480;-51
2021/07/03 03:24:11;;;;;;;1.38;1.27;;;20.70;71.70;;;;;;5109317;28;20389;-49
2021/07/03 03:26:37;;;;;;;2.20;1.75;;;20.70;71.80;;;;;;5109089;28;20044;-47
2021/07/03 03:29:03;;;;;;;1.85;1.58;;;20.70;71.80;;;;;;5098135;28;20093;-48
2021/07/03 03:31:30;;;;;;;2.08;1.85;;;20.70;71.80;;;;;;5097878;28;20040;-42
2021/07/03 03:33:56;;;;;;;1.52;1.38;;;20.70;71.80;;;;;;5098632;28;20224;-42
2021/07/03 03:36:22;;;;;;;1.60;1.50;;;20.70;71.70;;;;;;5098221;28;20123;-47
2021/07/03 03:38:49;;;;;;;1.70;1.60;;;20.70;71.80;;;;;;5098205;28;20044;-54
2021/07/03 03:41:15;;;;;;;1.75;1.65;;;20.70;71.80;;;;;;5079774;28;20060;-53
2021/07/03 03:43:41;;;;;;;1.63;1.48;;;20.70;71.80;;;;;;5099021;28;20051;-44
2021/07/03 03:46:07;;;;;;;1.55;1.38;;;20.60;71.70;;;;;;5098064;28;20059;-49
2021/07/03 03:48:33;;;;;;;1.50;1.40;;;20.70;71.80;;;;;;5097392;28;20126;-44
2021/07/03 03:50:59;;;;;;;1.60;1.50;;;20.60;71.70;;;;;;5098057;28;20094;-53
2021/07/03 03:53:24;;;;;;;1.63;1.50;;;20.70;71.80;;;;;;5098821;28;20457;-47
2021/07/03 03:55:50;;;;;;;1.48;1.38;;;20.70;71.80;;;;;;5097935;28;20044;-48
2021/07/03 03:58:16;;;;;;;1.60;1.50;;;20.70;71.80;;;;;;5097869;28;20456;-50
2021/07/03 04:00:42;;;;;;;1.95;1.63;;;20.70;71.80;;;;;;5097793;28;20053;-51
2021/07/03 04:03:08;;;;;;;1.13;0.98;;;20.60;71.80;;;;;;5097767;28;20071;-50
2021/07/03 04:05:33;;;;;;;1.85;1.60;;;20.70;71.80;;;;;;5096730;28;20424;-53
2021/07/03 04:07:59;;;;;;;1.33;1.23;;;20.60;71.70;;;;;;5094350;28;20052;-44
2021/07/03 04:10:25;;;;;;;1.33;1.23;;;20.70;71.80;;;;;;5094675;28;20082;-48
2021/07/03 04:12:51;;;;;;;1.35;1.25;;;20.60;71.70;;;;;;5094311;28;20118;-50
2021/07/03 04:15:16;;;;;;;1.40;1.30;;;20.70;71.80;;;;;;5095447;28;20048;-46
2021/07/03 04:17:42;;;;;;;1.40;1.30;;;20.60;71.80;;;;;;5094053;28;20125;-52
2021/07/03 04:20:10;;;;;;;2.03;1.48;;;20.70;71.80;;;;;;5093861;28;20052;-51
2021/07/03 04:22:36;;;;;;;1.30;1.20;;;20.60;71.70;;;;;;5094123;28;20054;-52
2021/07/03 04:25:04;;;;;;;2.83;1.33;;;20.70;71.80;;;;;;5095228;28;20052;-48
2021/07/03 04:27:30;;;;;;;1.48;1.38;;;20.70;71.80;;;;;;5094294;28;20048;-52
2021/07/03 04:29:56;;;;;;;1.55;1.40;;;20.70;71.80;;;;;;5112492;28;20101;-48
2021/07/03 04:32:22;;;;;;;1.25;1.15;;;20.70;71.80;;;;;;5114492;28;20050;-50
2021/07/03 04:34:48;;;;;;;1.33;1.23;;;20.60;71.80;;;;;;5114381;28;20047;-50
2021/07/03 04:37:13;;;;;;;2.08;1.42;;;20.60;71.80;;;;;;5112496;28;20047;-47
2021/07/03 04:39:39;;;;;;;1.42;1.30;;;20.70;71.80;;;;;;5114570;28;20051;-47
2021/07/03 04:42:05;;;;;;;1.38;1.17;;;20.60;72.40;;;;;;5114625;28;20108;-45
2021/07/03 04:44:31;;;;;;;1.42;1.33;;;20.60;71.80;;;;;;5114628;28;20035;-51
2021/07/03 04:46:56;;;;;;;1.50;1.40;;;20.60;71.80;;;;;;5112822;28;20465;-51
2021/07/03 04:49:22;;;;;;;1.40;1.30;;;20.60;71.80;;;;;;5114421;28;20055;-46
2021/07/03 04:51:48;;;;;;;1.75;1.65;;;20.60;71.80;;;;;;5114017;28;20043;-48
2021/07/03 04:54:17;;;;;;;1.40;1.30;;;20.70;71.80;;;;;;5115109;28;20047;-50
2021/07/03 04:56:42;;;;;;;1.50;1.40;;;20.60;71.80;;;;;;5114176;28;20047;-50
2021/07/03 04:59:08;;;;;;;1.50;1.40;;;20.60;71.80;;;;;;5113944;28;20070;-47
2021/07/03 05:01:34;;;;;;;1.48;1.35;;;20.50;71.80;;;;;;5114522;28;20492;-42
2021/07/03 05:04:00;;;;;;;1.63;1.50;;;20.60;71.80;;;;;;5114151;28;20043;-44
2021/07/03 05:06:26;;;;;;;1.50;1.40;;;20.60;71.80;;;;;;5113886;28;20051;-49
2021/07/03 05:08:51;;;;;;;1.50;1.40;;;20.60;71.80;;;;;;5111948;28;20052;-46
2021/07/03 05:11:17;;;;;;;1.63;1.52;;;20.60;71.80;;;;;;5113995;28;20063;-45
2021/07/03 05:13:43;;;;;;;1.77;1.65;;;20.60;71.80;;;;;;5113924;28;20139;-46
2021/07/03 05:16:09;;;;;;;1.50;1.40;;;20.50;71.70;;;;;;5113917;28;20428;-49
2021/07/03 05:18:34;;;;;;;1.40;1.30;;;20.60;71.80;;;;;;5111482;28;20124;-45
2021/07/03 05:21:00;;;;;;;1.75;1.50;;;20.60;71.80;;;;;;5113563;28;20044;-47
2021/07/03 05:23:26;;;;;;;1.77;1.30;;;20.60;71.80;;;;;;5113303;28;20074;-45
2021/07/03 05:25:54;;;;;;;1.67;1.40;;;20.60;71.80;;;;;;5113770;28;20093;-45
2021/07/03 05:28:20;;;;;;;1.60;1.50;;;20.60;71.80;;;;;;5113460;28;20101;-45
2021/07/03 05:30:48;;;;;;;1.83;1.50;;;20.60;71.80;;;;;;5096487;28;20048;-47
2021/07/03 05:33:15;;;;;;;1.52;1.42;;;20.60;71.80;;;;;;5113355;28;20067;-48
2021/07/03 05:35:40;;;;;;;2.58;1.52;;;20.60;71.80;;;;;;5113023;28;20138;-44
2021/07/03 05:38:06;;;;;;;1.38;1.27;;;20.60;71.80;;;;;;5113152;28;20055;-46
2021/07/03 05:40:32;;;;;;;1.27;1.17;;;20.60;71.90;;;;;;5111426;28;20048;-48
2021/07/03 05:42:58;;;;;;;1.90;1.70;;;20.60;71.80;;;;;;5106369;28;20040;-48
2021/07/03 05:45:24;;;;;;;1.90;1.70;;;20.60;71.80;;;;;;5092869;28;20055;-49
2021/07/03 05:47:50;;;;;;;1.55;1.45;;;20.60;71.80;;;;;;5092529;28;20407;-45
2021/07/03 05:50:25;;;;;;;1.20;1.05;;;20.60;71.80;;;;;;5093332;28;20191;-47
2021/07/03 05:52:52;;;;;;;1.70;1.52;;;20.60;71.80;;;;;;5092599;28;20052;-47
2021/07/03 05:55:18;;;;;;;1.70;1.60;;;20.60;71.80;;;;;;5092269;28;20040;-44
2021/07/03 05:57:44;;;;;;;2.40;1.65;;;20.60;71.80;;;;;;5092379;28;20083;-47
2021/07/03 06:00:12;;;;;;;1.42;1.23;;;20.60;71.80;;;;;;5092420;28;20079;-41
2021/07/03 06:02:39;;;;;;;1.55;1.27;;;20.60;71.80;;;;;;5093322;28;20060;-46
2021/07/03 06:05:06;;;;;;;1.50;1.40;;;20.60;71.80;;;;;;5101810;28;20039;-50
2021/07/03 06:07:32;;;;;;;1.40;1.30;;;20.60;71.80;;;;;;5112810;28;20039;-48
2021/07/03 06:09:58;;;;;;;1.48;1.38;;;20.60;71.80;;;;;;5112081;28;20064;-50
2021/07/03 06:12:23;;;;;;;1.58;1.33;;;20.60;71.80;;;;;;5110616;28;20043;-48
2021/07/03 06:14:49;;;;;;;1.88;1.35;;;20.60;71.80;;;;;;5112543;28;20055;-50
2021/07/03 06:17:15;;;;;;;1.70;1.52;;;20.60;71.80;;;;;;5112320;28;20490;-51
2021/07/03 06:19:42;;;;;;;1.40;1.30;;;20.60;71.80;;;;;;5112483;28;20156;-51
2021/07/03 06:22:10;;;;;;;1.40;1.30;;;20.60;71.80;;;;;;5111118;28;20048;-48
2021/07/03 06:24:36;;;;;;;1.55;1.40;;;20.60;71.80;;;;;;5112613;28;20128;-49
2021/07/03 06:27:02;;;;;;;1.73;1.20;;;20.60;71.70;;;;;;5112144;28;20055;-53
2021/07/03 06:29:28;;;;;;;1.40;1.30;;;20.60;71.70;;;;;;5111816;28;20074;-44
2021/07/03 06:31:54;;;;;;;1.42;1.33;;;20.60;71.80;;;;;;5112208;28;20047;-48
2021/07/03 06:34:20;;;;;;;1.25;1.15;;;20.60;71.70;;;;;;5110385;28;20059;-45
2021/07/03 06:36:46;;;;;;;1.58;1.48;;;20.60;71.70;;;;;;5111509;28;20091;-46
2021/07/03 06:39:11;;;;;;;2.78;1.40;;;20.60;71.80;;;;;;5112156;28;20225;-45
2021/07/03 06:41:37;;;;;;;1.80;1.55;;;20.60;71.80;;;;;;5112015;28;20092;-51
2021/07/03 06:44:03;;;;;;;1.42;1.33;;;20.60;71.70;;;;;;5109614;28;20153;-50
2021/07/03 06:46:29;;;;;;;1.45;1.35;;;20.60;71.70;;;;;;5111398;28;20036;-48
2021/07/03 06:48:56;;;;;;;2.22;1.52;;;20.60;71.70;;;;;;5112240;28;20055;-45
2021/07/03 06:51:21;;;;;;;2.22;1.50;;;20.60;71.70;;;;;;5112183;28;20085;-53
2021/07/03 06:53:47;;;;;;;1.58;1.40;;;20.60;71.70;;;;;;5112335;28;20040;-53
2021/07/03 06:56:13;;;;;;;1.60;1.50;;;20.60;71.70;;;;;;5110595;28;20044;-49
2021/07/03 06:58:38;;;;;;;1.73;1.30;;;20.60;71.70;;;;;;5112021;28;20506;-48
2021/07/03 07:01:04;;;;;;;1.60;1.50;;;20.60;71.80;;;;;;5112229;28;20071;-48
2021/07/03 07:03:30;;;;;;;1.50;1.38;;;20.70;71.80;;;;;;5112455;28;20055;-51
2021/07/03 07:05:56;;;;;;;1.45;1.35;;;20.60;71.70;;;;;;5110580;28;20518;-45
2021/07/03 07:08:21;;;;;;;1.60;1.45;;;20.70;71.80;;;;;;5113086;28;20484;-50
2021/07/03 07:10:47;;;;;;;1.60;1.27;;;20.70;71.70;;;;;;5112916;28;20097;-53
2021/07/03 07:13:13;;;;;;;1.60;1.40;;;20.70;71.70;;;;;;5111871;28;20047;-48
2021/07/03 07:15:39;;;;;;;1.80;1.30;;;20.60;71.60;;;;;;5110403;28;20055;-42
2021/07/03 07:18:05;;;;;;;2.25;1.58;;;20.60;71.60;;;;;;5111757;28;20062;-47
2021/07/03 07:20:30;;;;;;;1.50;1.40;;;20.60;71.60;;;;;;5111792;28;20054;-43
2021/07/03 07:22:56;;;;;;;1.88;1.52;;;20.70;71.70;;;;;;5111910;28;20055;-50
2021/07/03 07:25:22;;;;;;;1.17;1.08;;;20.70;71.70;;;;;;5112142;28;20055;-48
2021/07/03 07:27:48;;;;;;;1.45;1.27;;;20.70;71.70;;;;;;5110086;28;20063;-47
2021/07/03 07:30:14;;;;;;;1.48;1.20;;;20.70;71.60;;;;;;5111862;28;20531;-47
2021/07/03 07:32:40;;;;;;;1.65;1.30;;;20.70;71.60;;;;;;5111906;28;20048;-48
2021/07/03 07:35:06;;;;;;;1.73;1.42;;;20.70;71.60;;;;;;5111828;28;20096;-42
2021/07/03 07:37:32;;;;;;;1.75;1.50;;;20.70;71.60;;;;;;5110039;28;20415;-45
2021/07/03 07:39:58;;;;;;;1.70;1.42;;;20.70;71.60;;;;;;5111314;28;20538;-44
2021/07/03 07:42:23;;;;;;;2.42;1.27;;;20.80;71.60;;;;;;5115417;28;20070;-45
2021/07/03 07:44:49;;;;;;;1.63;1.48;;;20.80;71.60;;;;;;5115210;28;20138;-45
2021/07/03 07:47:15;;;;;;;1.20;1.10;;;20.80;71.60;;;;;;5115627;28;20540;-42
2021/07/03 07:49:40;;;;;;;2.40;1.30;;;20.80;71.60;;;;;;5113640;28;20047;-47
2021/07/03 07:52:06;;;;;;;1.50;1.33;;;20.80;71.60;;;;;;5115323;28;20120;-44
2021/07/03 07:54:32;;;;;;;1.58;1.25;;;20.80;71.60;;;;;;5115244;28;20415;-43
2021/07/03 07:56:59;;;;;;;1.63;1.27;;;20.80;71.50;;;;;;5115271;28;20055;-47
2021/07/03 07:59:28;;;;;;;1.50;1.40;;;20.80;71.50;;;;;;5113293;28;20069;-53
2021/07/03 08:01:54;;;;;;;1.25;1.15;;;20.80;71.50;;;;;;5115221;28;20044;-42
2021/07/03 08:04:20;;;;;;;1.85;1.52;;;20.80;71.40;;;;;;5115162;28;20101;-49
2021/07/03 08:06:46;;;;;;;1.20;1.02;;;20.80;71.40;;;;;;5115025;28;20496;-51
2021/07/03 08:09:12;;;;;;;1.48;1.30;;;20.80;71.30;;;;;;5109736;28;20048;-46
2021/07/03 08:11:37;;;;;;;1.55;1.42;;;20.90;71.40;;;;;;5094588;28;20051;-44
2021/07/03 08:14:03;;;;;;;1.88;1.38;;;20.90;71.30;;;;;;5094485;28;20557;-48
2021/07/03 08:16:29;;;;;;;1.25;1.10;;;20.90;71.30;;;;;;5095355;28;20451;-49
2021/07/03 08:18:55;;;;;;;1.52;1.30;;;20.90;71.20;;;;;;5094435;28;20048;-40
2021/07/03 08:21:21;;;;;;;1.42;1.30;;;20.90;71.20;;;;;;5094424;28;20048;-44
2021/07/03 08:23:47;;;;;;;1.20;1.10;;;20.90;71.20;;;;;;5094097;28;20131;-45
2021/07/03 08:26:13;;;;;;;1.20;1.10;;;20.90;71.20;;;;;;5093410;28;20115;-47
2021/07/03 08:28:40;;;;;;;1.38;1.23;;;21.00;71.20;;;;;;5094782;28;20079;-49
2021/07/03 08:31:06;;;;;;;1.38;1.25;;;20.90;71.20;;;;;;5093681;28;20699;-52
2021/07/03 08:33:32;;;;;;;1.20;1.10;;;21.00;71.90;;;;;;5094138;28;20047;-54
2021/07/03 08:35:58;;;;;;;1.23;1.13;;;21.00;71.20;;;;;;5094211;28;20051;-49
2021/07/03 08:38:24;;;;;;;1.45;1.30;;;21.00;71.20;;;;;;5094866;28;20044;-50
2021/07/03 08:40:51;;;;;;;1.52;1.42;;;21.10;71.20;;;;;;5102647;28;20352;-51
2021/07/03 08:43:17;;;;;;;0.82;0.80;;;21.10;71.20;;;;;;5093941;28;20507;-53
2021/07/03 08:45:43;;;;;;;1.20;1.10;;;21.10;71.20;;;;;;5093977;28;20048;-44
2021/07/03 08:48:09;;;;;;;1.30;1.20;;;21.00;71.10;;;;;;5094703;28;20040;-53
2021/07/03 08:50:34;;;;;;;1.30;1.20;;;21.10;71.10;;;;;;5093927;28;20554;-53
2021/07/03 08:53:00;;;;;;;1.73;1.35;;;21.10;71.10;;;;;;5092789;28;20075;-49
2021/07/03 08:55:27;;;;;;;1.42;1.10;;;21.20;71.20;;;;;;5093668;28;20075;-53
2021/07/03 08:58:06;;;;;;;1.13;1.02;;;21.10;71.10;;;;;;5093989;28;20056;-47
2021/07/03 09:00:33;;;;;;;1.40;1.30;;;21.10;71.60;;;;;;5113147;28;20047;-44
2021/07/03 09:03:08;;;;;;;1.25;1.13;;;21.10;71.10;;;;;;5113728;28;20048;-46
2021/07/03 09:05:34;;;;;;;1.20;1.10;;;21.10;71.10;;;;;;5114085;28;20437;-47
2021/07/03 09:08:06;;;;;;;1.38;1.27;;;21.10;71.10;;;;;;5113822;28;20115;-50
2021/07/03 09:10:33;;;;;;;1.38;1.27;;;21.10;71.10;;;;;;5099459;28;20105;-50
2021/07/03 09:13:00;;;;;;;1.40;1.20;;;21.10;71.00;;;;;;5093559;28;20047;-53
2021/07/03 09:15:30;;;;;;;1.60;1.40;;;21.10;71.00;;;;;;5075559;28;20068;-53
2021/07/03 09:18:07;;;;;;;1.00;1.00;;;21.20;71.00;;;;;;5093036;28;20063;-53
2021/07/03 09:20:39;;;;;;;1.02;0.98;;;21.20;71.00;;;;;;5094559;28;20048;-53
2021/07/03 09:23:07;;;;;;;1.20;1.05;;;21.20;71.00;;;;;;5093660;28;20044;-50
2021/07/03 09:25:35;;;;;;;1.40;1.23;;;21.20;71.00;;;;;;5093834;28;20055;-51
2021/07/03 09:28:10;;;;;;;1.40;1.30;;;21.20;71.00;;;;;;5094376;28;20051;-48
2021/07/03 09:30:36;;;;;;;;;;;21.20;70.90;;;;;;5094957;28;20117;-49
2021/07/03 09:33:02;;;;;;;1.20;1.10;;;21.20;71.20;;;;;;5093155;28;20431;-48
2021/07/03 09:35:28;;;;;;;1.38;1.27;;;21.20;71.00;;;;;;5092900;28;20173;-47
2021/07/03 09:38:06;;;;;;;1.40;1.20;;;21.20;70.90;;;;;;5093132;28;20484;-46
2021/07/03 09:40:33;;;;;;;1.48;1.23;;;21.30;71.00;;;;;;5093259;28;20044;-52
2021/07/03 09:43:04;;;;;;;1.30;1.05;;;21.30;71.00;;;;;;5094107;28;20091;-42
2021/07/03 09:45:30;;;;;;;1.33;1.23;;;21.30;71.00;;;;;;5092906;28;20048;-43
2021/07/03 09:48:03;;;;;;;1.30;1.20;;;21.30;71.00;;;;;;5092970;28;20136;-43
2021/07/03 09:50:30;;;;;;;1.20;1.10;;;21.30;71.00;;;;;;5092650;28;20063;-48
2021/07/03 09:52:59;;;;;;;1.08;1.00;;;21.30;71.00;;;;;;5093913;28;20055;-50
2021/07/03 09:55:25;;;;;;;1.20;1.10;;;21.30;71.00;;;;;;5101503;28;20130;-44
2021/07/03 09:57:51;;;;;;;1.08;0.90;;;21.30;71.00;;;;;;5113114;28;20039;-50
2021/07/03 10:00:17;;;;;;;0.98;0.88;;;21.30;71.00;;;;;;5112896;28;20040;-46
2021/07/03 10:02:43;;;;;;;1.20;1.10;;;21.40;71.60;;;;;;5106013;28;20538;-53
2021/07/03 10:05:09;;;;;;;1.10;1.05;;;21.40;71.00;;;;;;5091106;28;20064;-50
2021/07/03 10:07:45;;;;;;;1.25;1.10;;;21.40;70.90;;;;;;5092604;28;20109;-48
2021/07/03 10:10:14;;;;;;;0.90;0.90;;;21.40;70.90;;;;;;5092398;28;20048;-45
2021/07/03 10:12:44;;;;;;;1.35;1.25;;;21.30;70.80;;;;;;5092473;28;20052;-45
2021/07/03 10:15:10;;;;;;;1.38;1.10;;;21.40;70.90;;;;;;5092731;28;20066;-48
2021/07/03 10:17:36;;;;;;;1.10;1.00;;;21.40;70.90;;;;;;5092268;28;20539;-49
2021/07/03 10:20:14;;;;;;;1.40;1.10;;;21.40;70.90;;;;;;5092487;28;20135;-53
2021/07/03 10:22:50;;;;;;;1.25;1.05;;;21.50;70.80;;;;;;5091887;28;20113;-51
2021/07/03 10:25:16;;;;;;;1.55;1.45;;;21.50;70.90;;;;;;5093171;28;20048;-53
2021/07/03 10:27:54;;;;;;;1.30;1.10;;;21.50;70.80;;;;;;5091897;28;20044;-51
2021/07/03 10:30:27;;;;;;;1.38;1.23;;;21.50;70.80;;;;;;5092190;28;20044;-52
2021/07/03 10:33:02;;;;;;;1.15;1.05;;;21.50;70.80;;;;;;5092090;28;20044;-53
2021/07/03 10:35:40;;;;;;;1.30;0.93;;;21.60;70.90;;;;;;5092905;28;20432;-53
2021/07/03 10:38:28;;;;;;;1.52;1.33;;;21.70;70.90;;;;;;5091393;28;20040;-45
2021/07/03 10:41:24;;;;;;;1.77;1.15;;;21.60;70.70;;;;;;5091858;28;20048;-49
2021/07/03 10:43:58;;;;;;;1.00;0.90;;;21.70;70.80;;;;;;5090375;28;20056;-48
2021/07/03 10:46:42;;;;;;;1.33;1.00;;;21.70;70.90;;;;;;5092613;28;20067;-44
2021/07/03 10:49:13;;;;;;;1.38;1.23;;;21.60;70.80;;;;;;5100391;28;20065;-51
2021/07/03 10:51:46;;;;;;;1.00;0.90;;;21.70;70.80;;;;;;5112034;28;20043;-53
2021/07/03 10:54:37;;;;;;;1.77;1.27;;;21.70;70.80;;;;;;5111842;28;20047;-50
2021/07/03 10:57:04;;;;;;;1.10;1.00;;;21.70;70.80;;;;;;5105050;28;20067;-47
2021/07/03 10:59:34;;;;;;;1.20;1.10;;;21.70;70.80;;;;;;5112003;28;20096;-52
2021/07/03 11:02:09;;;;;;;1.90;1.20;;;21.80;70.80;;;;;;5112052;28;20083;-49
2021/07/03 11:04:52;;;;;;;1.33;1.10;;;21.80;70.80;;;;;;5112126;28;20046;-50
2021/07/03 11:07:20;;;;;;;1.20;1.00;;;21.80;70.70;;;;;;5110114;28;20365;-53
2021/07/03 11:09:46;;;;;;;1.42;1.15;;;21.80;70.70;;;;;;5111410;28;20058;-49
2021/07/03 11:12:23;;;;;;;1.10;1.00;;;21.80;70.70;;;;;;5111921;28;20057;-49
2021/07/03 11:14:54;;;;;;;0.80;0.80;;;21.90;70.70;;;;;;5110118;28;20043;-48
2021/07/03 11:17:26;;;;;;;1.30;1.20;;;21.90;70.70;;;;;;5115967;28;20059;-52
2021/07/03 11:19:53;;;;;;;0.80;0.80;;;21.90;70.70;;;;;;5116181;28;20051;-52
2021/07/03 11:22:22;;;;;;;1.17;1.00;;;21.90;70.60;;;;;;5096884;28;20044;-51
2021/07/03 11:24:51;;;;;;;1.27;1.17;;;21.90;70.60;;;;;;5113977;28;20093;-50
2021/07/03 11:27:34;;;;;;;1.17;1.08;;;21.90;70.60;;;;;;5115967;28;20165;-45
2021/07/03 11:30:17;;;;;;;1.10;1.00;;;22.00;70.60;;;;;;5114498;28;20052;-50
2021/07/03 11:32:55;;;;;;;1.70;1.00;;;22.00;70.60;;;;;;5095351;28;20039;-48
2021/07/03 11:35:21;;;;;;;1.00;0.90;;;22.00;70.50;;;;;;5093843;28;20051;-51
2021/07/03 11:37:47;;;;;;;1.20;1.10;;;22.00;70.40;;;;;;5095635;28;20044;-52
2021/07/03 11:40:23;;;;;;;1.02;0.93;;;22.00;70.40;;;;;;5095169;28;20071;-48
2021/07/03 11:42:53;;;;;;;0.80;0.80;;;22.10;70.40;;;;;;5096065;28;20135;-47
2021/07/03 11:45:25;;;;;;;1.50;1.02;;;22.10;70.40;;;;;;5096092;28;20075;-48
2021/07/03 11:47:53;;;;;;;1.30;0.98;;;22.10;70.30;;;;;;5093587;28;20077;-51
2021/07/03 11:50:22;;;;;;;1.02;1.00;;;22.10;70.30;;;;;;5082157;28;20056;-41
2021/07/03 11:52:54;;;;;;;1.00;0.88;;;22.10;70.20;;;;;;5074999;28;20056;-45
2021/07/03 11:55:24;;;;;;;0.80;0.80;;;22.10;70.10;;;;;;5074338;28;20131;-44
2021/07/03 11:57:50;;;;;;;1.17;1.00;;;22.10;70.10;;;;;;5076021;28;20056;-47
2021/07/03 12:00:22;;;;;;;1.13;1.02;;;22.10;70.00;;;;;;5075031;28;20481;-50
2021/07/03 12:02:49;;;;;;;1.55;1.15;;;22.20;70.00;;;;;;5075472;28;20049;-49
2021/07/03 12:05:19;;;;;;;1.05;0.95;;;22.20;70.00;;;;;;5075740;28;20143;-51
2021/07/03 12:07:55;;;;;;;1.52;1.27;;;22.20;69.90;;;;;;5076582;28;20045;-47
2021/07/03 12:10:30;;;;;;;1.23;1.13;;;22.30;69.90;;;;;;5075321;28;20095;-48
2021/07/03 12:12:56;;;;;;;0.82;0.80;;;22.30;69.90;;;;;;5075386;28;20033;-48
2021/07/03 12:15:26;;;;;;;1.45;1.30;;;22.30;69.80;;;;;;5075550;28;20056;-49
2021/07/03 12:17:52;;;;;;;1.55;1.02;;;22.30;69.80;;;;;;5076369;28;20106;-48
2021/07/03 12:20:19;;;;;;;1.08;1.00;;;22.30;69.70;;;;;;5075423;28;20083;-47
2021/07/03 12:23:03;;;;;;;0.90;0.90;;;22.30;69.70;;;;;;5075300;28;20416;-49
2021/07/03 12:25:30;;;;;;;1.50;1.20;;;22.30;69.60;;;;;;5075369;28;20449;-53
2021/07/03 12:28:00;;;;;;;0.90;0.80;;;22.30;69.60;;;;;;5073739;28;20040;-48
2021/07/03 12:30:28;;;;;;;0.90;0.90;;;22.30;69.60;;;;;;5076338;28;20111;-53
2021/07/03 12:33:05;;;;;;;1.20;1.02;;;22.40;69.60;;;;;;5075030;28;20516;-48
2021/07/03 12:35:55;;;;;;;0.98;0.90;;;22.40;69.50;;;;;;5075108;28;20484;-50
2021/07/03 12:38:25;;;;;;;1.65;0.90;;;22.40;69.40;;;;;;5074980;28;20052;-49
2021/07/03 12:40:52;;;;;;;1.10;1.00;;;22.40;69.50;;;;;;5076107;28;20056;-52
2021/07/03 12:43:18;;;;;;;0.80;0.80;;;22.40;69.40;;;;;;5074735;28;20079;-49
2021/07/03 12:45:44;;;;;;;1.00;0.90;;;22.40;69.40;;;;;;5074942;28;20503;-47
2021/07/03 12:48:14;;;;;;;1.20;1.10;;;22.50;69.40;;;;;;5074895;28;20401;-52
2021/07/03 12:50:43;;;;;;;0.80;0.80;;;22.40;69.30;;;;;;5075599;28;20095;-50